Time;durP1;ratioP1;P1;durP2;ratioP2;P2;SDS_P1;SDS_P2;PMS_P1;PMS_P2;Temp;Humidity;BMP_temperature;BMP_pressure;BME280_temperature;BME280_humidity;BME280_pressure;Samples;Min_cycle;Max_cycle;Signal;HPM_P1;HPM_P2
2021/07/24 00:01:11;;;;;;;10.23;9.13;;;20.30;99.90;;;;;;4918805;29;20493;-69
2021/07/24 00:03:39;;;;;;;9.30;8.10;;;20.30;99.90;;;;;;4918604;29;20472;-69
2021/07/24 00:06:06;;;;;;;8.63;7.73;;;20.30;99.90;;;;;;4918737;29;20493;-70
2021/07/24 00:08:32;;;;;;;9.77;8.07;;;20.30;99.90;;;;;;4918656;29;20465;-69
2021/07/24 00:11:04;;;;;;;10.17;8.67;;;20.20;99.90;;;;;;4918594;29;20465;-69
2021/07/24 00:13:32;;;;;;;9.17;8.27;;;20.20;99.90;;;;;;4918388;29;20489;-69
2021/07/24 00:15:59;;;;;;;11.47;9.17;;;20.20;99.90;;;;;;4918818;29;20485;-69
2021/07/24 00:18:25;;;;;;;8.90;7.87;;;20.20;99.90;;;;;;4918422;29;20548;-69
2021/07/24 00:20:52;;;;;;;10.37;9.37;;;20.10;99.90;;;;;;4919109;29;20457;-71
2021/07/24 00:23:21;;;;;;;14.00;8.90;;;20.10;99.90;;;;;;4918732;29;20466;-70
2021/07/24 00:25:47;;;;;;;11.33;9.20;;;20.10;99.90;;;;;;4918698;29;20468;-70
2021/07/24 00:28:15;;;;;;;12.20;9.00;;;20.00;99.90;;;;;;4918751;29;20549;-70
2021/07/24 00:30:43;;;;;;;15.60;9.33;;;20.10;99.90;;;;;;4919520;29;20799;-69
2021/07/24 00:33:10;;;;;;;16.20;9.67;;;20.00;99.90;;;;;;4918689;29;20458;-69
2021/07/24 00:35:38;;;;;;;11.63;10.30;;;20.00;99.90;;;;;;4918082;29;20485;-69
2021/07/24 00:38:04;;;;;;;13.03;9.20;;;19.90;99.90;;;;;;4918468;29;20465;-69
2021/07/24 00:40:36;;;;;;;10.23;9.23;;;19.90;99.90;;;;;;4918567;29;20473;-69
2021/07/24 00:43:04;;;;;;;12.77;9.50;;;19.90;99.90;;;;;;4918773;29;20446;-69
2021/07/24 00:45:39;;;;;;;10.60;9.40;;;19.90;99.90;;;;;;4918314;29;20955;-69
2021/07/24 00:48:07;;;;;;;10.73;9.00;;;19.80;99.90;;;;;;4918605;29;20453;-70
2021/07/24 00:50:34;;;;;;;9.40;8.30;;;19.80;99.90;;;;;;4917992;29;20558;-68
2021/07/24 00:53:10;;;;;;;9.30;8.40;;;19.80;99.90;;;;;;4918518;29;20473;-69
2021/07/24 00:55:37;;;;;;;9.67;8.27;;;19.80;99.90;;;;;;4918378;29;20532;-68
2021/07/24 00:58:22;;;;;;;9.13;8.23;;;19.80;99.90;;;;;;4918261;29;20895;-68
2021/07/24 01:00:50;;;;;;;7.93;7.23;;;19.80;99.90;;;;;;4918275;29;20454;-69
2021/07/24 01:03:17;;;;;;;8.97;8.07;;;19.80;99.90;;;;;;4920182;29;20484;-68
2021/07/24 01:05:44;;;;;;;8.67;7.87;;;19.80;99.90;;;;;;4921448;29;20453;-69
2021/07/24 01:08:14;;;;;;;8.63;7.73;;;19.80;99.90;;;;;;4921459;29;20457;-69
2021/07/24 01:10:41;;;;;;;8.87;8.00;;;19.80;99.90;;;;;;4921826;29;20802;-69
2021/07/24 01:13:08;;;;;;;9.73;8.40;;;19.80;99.90;;;;;;4921582;29;20553;-69
2021/07/24 01:15:34;;;;;;;9.37;7.93;;;19.80;99.90;;;;;;4921745;29;20809;-69
2021/07/24 01:18:02;;;;;;;9.00;7.33;;;19.80;99.90;;;;;;4921610;29;20465;-69
2021/07/24 01:20:29;;;;;;;10.57;8.07;;;19.80;99.90;;;;;;4921448;29;20819;-69
2021/07/24 01:22:57;;;;;;;9.30;8.40;;;19.80;99.90;;;;;;4921685;29;20473;-69
2021/07/24 01:25:24;;;;;;;9.37;8.47;;;19.80;99.90;;;;;;4921683;29;20458;-69
2021/07/24 01:27:51;;;;;;;9.90;8.60;;;19.70;99.90;;;;;;4921454;29;20797;-69
2021/07/24 01:30:18;;;;;;;9.93;8.47;;;19.70;99.90;;;;;;4921473;29;20465;-69
2021/07/24 01:32:44;;;;;;;9.00;8.20;;;19.70;99.90;;;;;;4921475;29;20470;-70
2021/07/24 01:35:12;;;;;;;9.67;8.47;;;19.70;99.90;;;;;;4920918;29;20466;-70
2021/07/24 01:37:39;;;;;;;9.13;8.07;;;19.60;99.90;;;;;;4921462;29;20470;-69
2021/07/24 01:40:08;;;;;;;8.50;7.70;;;19.60;99.90;;;;;;4921287;29;20462;-71
2021/07/24 01:42:35;;;;;;;9.00;7.73;;;19.60;99.90;;;;;;4921759;29;20461;-69
2021/07/24 01:45:02;;;;;;;8.83;7.93;;;19.60;99.90;;;;;;4921504;29;20472;-69
2021/07/24 01:47:28;;;;;;;8.60;7.70;;;19.60;99.90;;;;;;4921068;29;20476;-69
2021/07/24 01:52:49;;;;;;;8.53;7.67;;;19.50;99.90;;;;;;4921156;29;20442;-70
2021/07/24 01:55:23;;;;;;;9.87;8.00;;;19.50;99.90;;;;;;4920692;29;20536;-69
2021/07/24 01:57:52;;;;;;;8.67;7.87;;;19.40;99.90;;;;;;4921467;29;20481;-70
2021/07/24 02:00:20;;;;;;;8.30;7.50;;;19.40;99.90;;;;;;4920853;29;20465;-69
2021/07/24 02:02:50;;;;;;;8.77;7.97;;;19.40;99.90;;;;;;4920650;29;20473;-68
2021/07/24 02:05:34;;;;;;;10.30;7.63;;;19.40;99.90;;;;;;4920815;29;20497;-70
2021/07/24 02:08:04;;;;;;;8.50;7.60;;;19.40;99.90;;;;;;4921128;29;20827;-72
2021/07/24 02:10:34;;;;;;;8.40;7.60;;;19.30;99.90;;;;;;4921592;29;20473;-70
2021/07/24 02:13:00;;;;;;;9.80;8.77;;;19.30;99.90;;;;;;4920606;29;20489;-69
2021/07/24 02:15:27;;;;;;;9.60;8.10;;;19.30;99.90;;;;;;4920914;29;20462;-71
2021/07/24 02:17:54;;;;;;;9.30;8.33;;;19.30;99.90;;;;;;4921196;29;20473;-70
2021/07/24 02:20:24;;;;;;;12.10;7.90;;;19.20;99.90;;;;;;4920473;29;20461;-70
2021/07/24 02:22:51;;;;;;;9.90;8.97;;;19.20;99.90;;;;;;4920727;29;20498;-70
2021/07/24 02:25:18;;;;;;;10.63;8.27;;;19.20;99.90;;;;;;4921078;29;20572;-70
2021/07/24 02:27:47;;;;;;;9.47;8.50;;;19.20;99.90;;;;;;4920876;29;20799;-70
2021/07/24 02:30:16;;;;;;;13.30;8.00;;;19.20;99.90;;;;;;4920840;29;20473;-70
2021/07/24 02:32:44;;;;;;;9.23;8.20;;;19.20;99.90;;;;;;4922102;29;20465;-69
2021/07/24 02:35:12;;;;;;;9.97;8.97;;;19.20;99.90;;;;;;4925068;29;20476;-71
2021/07/24 02:37:39;;;;;;;10.40;8.10;;;19.20;99.90;;;;;;4923309;29;20974;-70
2021/07/24 02:40:07;;;;;;;9.87;8.80;;;19.20;99.90;;;;;;4920880;29;20476;-71
2021/07/24 02:42:34;;;;;;;8.83;8.00;;;19.20;99.90;;;;;;4921428;29;20490;-69
2021/07/24 02:45:02;;;;;;;9.37;8.37;;;19.20;99.90;;;;;;4920952;29;20934;-70
2021/07/24 02:47:28;;;;;;;12.17;9.80;;;19.20;99.90;;;;;;4921268;29;20457;-70
2021/07/24 02:49:55;;;;;;;11.40;9.13;;;19.20;99.90;;;;;;4921381;29;20462;-70
2021/07/24 02:52:22;;;;;;;10.33;8.90;;;19.10;99.90;;;;;;4921781;29;20476;-70
2021/07/24 02:54:50;;;;;;;10.93;9.33;;;19.10;99.90;;;;;;4921717;29;20857;-70
2021/07/24 02:57:16;;;;;;;14.00;10.97;;;19.10;99.90;;;;;;4920663;29;20484;-71
2021/07/24 02:59:43;;;;;;;11.33;9.70;;;19.10;99.90;;;;;;4920518;29;20465;-70
2021/07/24 03:02:14;;;;;;;11.30;10.10;;;19.10;99.90;;;;;;4920213;29;20540;-70
2021/07/24 03:04:40;;;;;;;10.67;9.57;;;19.10;99.90;;;;;;4920352;29;20800;-71
2021/07/24 03:07:07;;;;;;;11.60;10.07;;;19.10;99.90;;;;;;4920922;29;20825;-70
2021/07/24 03:09:34;;;;;;;13.13;9.90;;;19.10;99.90;;;;;;4920915;29;20461;-70
2021/07/24 03:12:00;;;;;;;12.93;10.67;;;19.10;99.90;;;;;;4920395;29;20492;-70
2021/07/24 03:14:27;;;;;;;11.57;10.10;;;19.10;99.90;;;;;;4922723;29;20472;-69
2021/07/24 03:16:58;;;;;;;11.30;10.10;;;19.10;99.90;;;;;;4924630;29;20489;-69
2021/07/24 03:19:27;;;;;;;12.63;10.60;;;19.10;99.90;;;;;;4926115;29;20453;-70
2021/07/24 03:21:54;;;;;;;12.03;10.73;;;19.10;99.90;;;;;;4922763;29;20472;-70
2021/07/24 03:24:21;;;;;;;17.50;11.27;;;19.00;99.90;;;;;;4920442;29;20528;-70
2021/07/24 03:26:47;;;;;;;13.03;10.77;;;19.10;99.90;;;;;;4918533;29;20953;-70
2021/07/24 03:29:15;;;;;;;14.57;10.60;;;19.10;99.90;;;;;;4919676;29;20462;-71
2021/07/24 03:31:42;;;;;;;12.10;10.77;;;19.10;99.90;;;;;;4920101;29;20914;-70
2021/07/24 03:34:09;;;;;;;12.13;10.83;;;19.10;99.90;;;;;;4919760;29;20470;-70
2021/07/24 03:36:37;;;;;;;12.50;11.07;;;19.10;99.90;;;;;;4920083;29;20566;-70
2021/07/24 03:39:05;;;;;;;12.80;11.33;;;19.10;99.90;;;;;;4919812;29;20532;-70
2021/07/24 03:41:34;;;;;;;13.53;12.10;;;19.20;99.90;;;;;;4920003;29;20465;-70
2021/07/24 03:44:01;;;;;;;12.97;11.67;;;19.20;99.90;;;;;;4919747;29;20493;-71
2021/07/24 03:46:29;;;;;;;14.90;12.07;;;19.20;99.90;;;;;;4919810;29;20918;-69
2021/07/24 03:48:56;;;;;;;13.40;11.90;;;19.20;99.90;;;;;;4919515;29;20492;-70
2021/07/24 03:51:23;;;;;;;17.00;11.73;;;19.20;99.90;;;;;;4919645;29;20466;-70
2021/07/24 03:53:51;;;;;;;12.30;11.10;;;19.20;99.90;;;;;;4919619;29;20947;-70
2021/07/24 03:56:20;;;;;;;12.40;11.10;;;19.20;99.90;;;;;;4919550;29;20970;-71
2021/07/24 03:58:50;;;;;;;15.83;12.27;;;19.20;99.90;;;;;;4919178;29;20535;-70
2021/07/24 04:01:18;;;;;;;13.80;12.40;;;19.30;99.90;;;;;;4919820;29;20961;-69
2021/07/24 04:03:45;;;;;;;15.57;11.93;;;19.30;99.90;;;;;;4919891;29;20511;-70
2021/07/24 04:06:20;;;;;;;18.03;12.80;;;19.30;99.90;;;;;;4919355;29;20895;-70
2021/07/24 04:08:47;;;;;;;13.33;11.70;;;19.30;99.90;;;;;;4919365;29;20460;-69
2021/07/24 04:11:15;;;;;;;13.70;12.30;;;19.30;99.90;;;;;;4919808;29;20476;-70
2021/07/24 04:13:43;;;;;;;13.87;11.73;;;19.30;99.90;;;;;;4920649;29;20453;-70
2021/07/24 04:16:10;;;;;;;12.50;11.20;;;19.30;99.90;;;;;;4921397;29;20522;-70
2021/07/24 04:18:38;;;;;;;14.00;12.40;;;19.40;99.90;;;;;;4920426;29;20465;-69
2021/07/24 04:21:05;;;;;;;12.27;10.90;;;19.40;99.90;;;;;;4921741;29;20465;-70
2021/07/24 04:23:33;;;;;;;14.83;11.60;;;19.40;99.90;;;;;;4922960;29;20469;-70
2021/07/24 04:26:00;;;;;;;13.50;11.73;;;19.40;99.90;;;;;;4921992;29;20462;-70
2021/07/24 04:28:28;;;;;;;13.90;12.20;;;19.50;99.90;;;;;;4922627;29;20469;-70
2021/07/24 04:30:55;;;;;;;13.10;11.47;;;19.50;99.90;;;;;;4921502;29;20809;-70
2021/07/24 04:33:21;;;;;;;12.93;11.53;;;19.50;99.90;;;;;;4920962;29;20458;-69
2021/07/24 04:35:49;;;;;;;15.07;11.33;;;19.60;99.90;;;;;;4920665;29;20464;-70
2021/07/24 04:38:16;;;;;;;13.77;11.80;;;19.60;99.90;;;;;;4922885;29;20496;-69
2021/07/24 04:40:45;;;;;;;12.83;11.53;;;19.70;99.90;;;;;;4924798;29;20465;-70
2021/07/24 04:43:13;;;;;;;13.83;11.50;;;19.70;99.90;;;;;;4925386;29;20528;-70
2021/07/24 04:45:46;;;;;;;13.87;11.50;;;19.80;99.90;;;;;;4924687;29;20520;-70
2021/07/24 04:48:13;;;;;;;14.10;11.47;;;19.90;99.90;;;;;;4924668;29;20457;-71
2021/07/24 04:50:44;;;;;;;13.27;11.93;;;19.90;99.90;;;;;;4924306;29;20464;-70
2021/07/24 04:53:12;;;;;;;14.50;11.53;;;20.00;99.90;;;;;;4923218;29;20778;-70
2021/07/24 04:55:40;;;;;;;13.53;11.60;;;20.00;99.90;;;;;;4922945;29;20461;-70
2021/07/24 04:58:09;;;;;;;14.60;11.37;;;20.10;99.90;;;;;;4922647;29;20492;-70
2021/07/24 05:00:38;;;;;;;13.17;11.63;;;20.20;99.90;;;;;;4922850;29;20493;-70
2021/07/24 05:03:06;;;;;;;13.50;12.10;;;20.20;99.90;;;;;;4922755;29;20639;-70
2021/07/24 05:05:37;;;;;;;14.20;11.60;;;20.30;99.90;;;;;;4923031;29;20461;-70
2021/07/24 05:08:08;;;;;;;14.70;11.27;;;20.40;99.90;;;;;;4922544;29;20933;-71
2021/07/24 05:10:35;;;;;;;13.93;10.40;;;20.50;99.90;;;;;;4923096;29;20445;-69
2021/07/24 05:13:03;;;;;;;13.30;10.47;;;20.50;99.90;;;;;;4922657;29;20496;-70
2021/07/24 05:15:30;;;;;;;13.03;10.50;;;20.60;99.90;;;;;;4922726;29;20461;-70
2021/07/24 05:17:58;;;;;;;12.57;10.87;;;20.60;99.90;;;;;;4923846;29;20481;-70
2021/07/24 05:20:28;;;;;;;12.50;10.90;;;20.70;99.90;;;;;;4924871;29;20465;-70
2021/07/24 05:22:55;;;;;;;12.03;10.80;;;20.70;99.90;;;;;;4924741;29;20463;-70
2021/07/24 05:25:21;;;;;;;13.17;11.73;;;20.80;99.90;;;;;;4923823;29;20528;-70
2021/07/24 05:27:48;;;;;;;15.10;11.33;;;20.90;99.90;;;;;;4923207;29;20524;-70
2021/07/24 05:30:15;;;;;;;11.77;10.30;;;20.90;99.90;;;;;;4923999;29;20465;-70
2021/07/24 05:32:42;;;;;;;11.90;10.70;;;21.00;99.90;;;;;;4924947;29;20469;-69
2021/07/24 05:35:11;;;;;;;12.50;11.10;;;21.00;99.90;;;;;;4924443;29;20465;-70
2021/07/24 05:37:39;;;;;;;11.93;10.63;;;21.10;99.90;;;;;;4924394;29;20980;-69
2021/07/24 05:40:06;;;;;;;13.63;11.47;;;21.10;99.90;;;;;;4923428;29;20532;-70
2021/07/24 05:42:33;;;;;;;12.80;11.50;;;21.20;99.90;;;;;;4923421;29;20461;-69
2021/07/24 05:45:01;;;;;;;12.10;10.77;;;21.30;99.90;;;;;;4922269;29;20915;-70
2021/07/24 05:47:30;;;;;;;14.63;10.43;;;21.30;99.90;;;;;;4923303;29;20785;-70
2021/07/24 05:49:57;;;;;;;13.80;11.47;;;21.40;99.90;;;;;;4922508;29;20500;-70
2021/07/24 05:52:25;;;;;;;12.50;11.20;;;21.50;99.90;;;;;;4922919;29;20528;-70
2021/07/24 05:54:55;;;;;;;13.13;10.83;;;21.60;99.90;;;;;;4924083;29;20802;-70
2021/07/24 05:57:22;;;;;;;12.30;11.00;;;21.60;99.90;;;;;;4923732;29;20966;-70
2021/07/24 05:59:48;;;;;;;12.67;10.83;;;21.60;99.90;;;;;;4924221;29;20894;-70
2021/07/24 06:02:17;;;;;;;11.97;10.60;;;21.70;99.90;;;;;;4923186;29;20940;-70
2021/07/24 06:04:45;;;;;;;17.33;11.10;;;21.80;99.90;;;;;;4923495;29;20457;-69
2021/07/24 06:07:12;;;;;;;11.43;10.30;;;21.80;99.90;;;;;;4922028;29;20520;-69
2021/07/24 06:09:39;;;;;;;14.63;11.03;;;21.90;99.90;;;;;;4921637;29;20500;-70
2021/07/24 06:12:09;;;;;;;11.90;10.70;;;21.90;99.90;;;;;;4921401;29;20489;-70
2021/07/24 06:14:35;;;;;;;12.00;10.10;;;22.00;99.90;;;;;;4921924;29;20564;-70
2021/07/24 06:17:03;;;;;;;12.73;10.93;;;22.10;99.90;;;;;;4921447;29;20973;-70
2021/07/24 06:19:31;;;;;;;11.70;10.57;;;22.10;99.90;;;;;;4921596;29;20476;-70
2021/07/24 06:21:58;;;;;;;11.60;9.77;;;22.20;99.90;;;;;;4921836;29;20525;-70
2021/07/24 06:24:25;;;;;;;11.70;10.50;;;22.20;99.90;;;;;;4921334;29;20556;-70
2021/07/24 06:26:53;;;;;;;12.97;10.20;;;22.30;99.90;;;;;;4921196;29;20990;-70
2021/07/24 06:29:23;;;;;;;14.23;11.13;;;22.40;99.90;;;;;;4920956;29;20477;-70
2021/07/24 06:31:49;;;;;;;14.10;9.90;;;22.40;99.90;;;;;;4921464;29;20476;-75
2021/07/24 06:34:16;;;;;;;12.03;10.37;;;22.50;99.90;;;;;;4921481;29;20792;-70
2021/07/24 06:36:43;;;;;;;12.03;10.30;;;22.60;99.90;;;;;;4921357;29;20490;-69
2021/07/24 06:39:11;;;;;;;14.50;10.87;;;22.60;99.90;;;;;;4921488;29;20916;-69
2021/07/24 06:41:40;;;;;;;14.30;9.87;;;22.70;99.90;;;;;;4921888;29;20472;-69
2021/07/24 06:44:09;;;;;;;12.30;10.33;;;22.70;99.90;;;;;;4922407;29;20472;-69
2021/07/24 06:46:38;;;;;;;11.43;10.20;;;22.80;99.90;;;;;;4923841;29;20469;-69
2021/07/24 06:49:05;;;;;;;14.23;10.90;;;22.90;99.90;;;;;;4922066;29;20474;-70
2021/07/24 06:51:31;;;;;;;11.97;10.60;;;23.00;99.90;;;;;;4921271;29;20472;-70
2021/07/24 06:53:59;;;;;;;12.13;10.60;;;23.00;99.90;;;;;;4921655;29;20465;-70
2021/07/24 06:56:27;;;;;;;15.23;10.40;;;23.10;99.90;;;;;;4922783;29;20469;-69
2021/07/24 06:58:54;;;;;;;13.03;10.63;;;23.20;99.90;;;;;;4923494;29;20500;-69
2021/07/24 07:01:21;;;;;;;12.50;10.50;;;23.20;99.90;;;;;;4923316;29;20534;-68
2021/07/24 07:03:49;;;;;;;12.03;10.80;;;23.30;99.90;;;;;;4922752;29;20545;-69
2021/07/24 07:06:23;;;;;;;12.13;10.90;;;23.40;99.90;;;;;;4921792;29;20493;-70
2021/07/24 07:08:50;;;;;;;16.23;10.50;;;23.50;99.90;;;;;;4923325;29;20524;-70
2021/07/24 07:11:17;;;;;;;12.63;10.20;;;23.50;99.90;;;;;;4921905;29;20497;-70
2021/07/24 07:13:44;;;;;;;12.00;10.80;;;23.60;99.90;;;;;;4921982;29;20481;-70
2021/07/24 07:16:11;;;;;;;13.63;9.97;;;23.70;99.90;;;;;;4922294;29;20465;-71
2021/07/24 07:18:38;;;;;;;15.47;10.37;;;23.70;99.90;;;;;;4921043;29;20496;-70
2021/07/24 07:21:09;;;;;;;11.77;10.53;;;23.80;99.90;;;;;;4922709;29;20496;-69
2021/07/24 07:23:37;;;;;;;13.23;10.90;;;23.90;99.90;;;;;;4922405;29;20461;-69
2021/07/24 07:26:04;;;;;;;11.50;10.20;;;24.00;99.90;;;;;;4920248;29;20473;-69
2021/07/24 07:28:31;;;;;;;12.37;11.10;;;24.00;99.90;;;;;;4920098;29;20465;-70
2021/07/24 07:30:57;;;;;;;11.40;10.20;;;24.20;99.90;;;;;;4919794;29;20462;-72
2021/07/24 07:33:25;;;;;;;11.60;10.40;;;24.20;99.90;;;;;;4919988;29;20469;-70
2021/07/24 07:35:52;;;;;;;12.30;10.80;;;24.30;99.90;;;;;;4920455;29;20477;-72
2021/07/24 07:38:20;;;;;;;12.30;11.00;;;24.40;99.90;;;;;;4920693;29;21008;-71
2021/07/24 07:40:48;;;;;;;11.70;10.50;;;24.50;99.90;;;;;;4923365;29;20461;-71
2021/07/24 07:43:14;;;;;;;11.47;9.63;;;24.50;99.90;;;;;;4921756;29;20469;-71
2021/07/24 07:45:41;;;;;;;12.17;10.90;;;24.60;99.90;;;;;;4923099;29;20465;-71
2021/07/24 07:48:09;;;;;;;13.57;11.50;;;24.70;99.90;;;;;;4922246;29;20457;-70
2021/07/24 07:50:37;;;;;;;13.53;11.40;;;24.80;99.90;;;;;;4921700;29;20472;-70
2021/07/24 07:53:05;;;;;;;11.27;10.00;;;24.90;99.90;;;;;;4919515;29;20462;-70
2021/07/24 07:55:33;;;;;;;12.80;11.40;;;24.90;99.90;;;;;;4919359;29;20469;-70
2021/07/24 07:58:00;;;;;;;12.67;11.33;;;25.00;99.90;;;;;;4919267;29;20505;-70
2021/07/24 08:00:28;;;;;;;12.37;11.07;;;25.10;99.90;;;;;;4919449;29;20465;-70
2021/07/24 08:02:55;;;;;;;12.63;10.90;;;25.20;99.90;;;;;;4919481;29;20476;-70
2021/07/24 08:05:22;;;;;;;12.97;10.80;;;25.30;99.90;;;;;;4919274;29;20461;-70
2021/07/24 08:07:51;;;;;;;12.30;11.10;;;25.30;99.90;;;;;;4923464;29;20457;-69
2021/07/24 08:10:19;;;;;;;13.10;10.73;;;25.40;99.90;;;;;;4921476;29;20476;-69
2021/07/24 08:12:50;;;;;;;12.10;10.90;;;25.40;99.90;;;;;;4918105;29;20886;-70
2021/07/24 08:15:17;;;;;;;12.33;11.07;;;25.50;99.90;;;;;;4919323;29;20453;-70
2021/07/24 08:17:46;;;;;;;12.17;10.87;;;25.60;99.90;;;;;;4919607;29;20495;-70
2021/07/24 08:20:13;;;;;;;12.30;10.80;;;25.60;99.90;;;;;;4919171;29;20472;-70
2021/07/24 08:22:40;;;;;;;10.57;9.47;;;25.70;99.90;;;;;;4918981;29;20469;-70
2021/07/24 08:25:07;;;;;;;12.47;11.17;;;25.80;99.90;;;;;;4918699;29;20488;-70
2021/07/24 08:27:36;;;;;;;12.07;10.77;;;25.90;99.90;;;;;;4919005;29;20929;-70
2021/07/24 08:30:05;;;;;;;12.60;10.43;;;26.00;99.90;;;;;;4919472;29;20461;-70
2021/07/24 08:32:31;;;;;;;12.40;11.10;;;26.00;99.90;;;;;;4919119;29;20822;-68
2021/07/24 08:35:00;;;;;;;12.23;10.93;;;26.10;99.90;;;;;;4920096;29;20461;-69
2021/07/24 08:37:26;;;;;;;11.10;10.00;;;26.20;99.90;;;;;;4919035;29;20473;-69
2021/07/24 08:39:53;;;;;;;12.03;10.70;;;26.30;99.90;;;;;;4919209;29;20472;-68
2021/07/24 08:42:31;;;;;;;11.20;10.00;;;26.40;99.90;;;;;;4918722;29;20473;-69
2021/07/24 08:45:00;;;;;;;12.93;10.70;;;26.50;99.90;;;;;;4918655;29;20548;-68
2021/07/24 08:47:28;;;;;;;11.67;10.47;;;26.50;99.90;;;;;;4919109;29;20489;-68
2021/07/24 08:49:55;;;;;;;12.77;11.47;;;26.60;99.90;;;;;;4918547;29;20670;-69
2021/07/24 08:52:30;;;;;;;12.40;11.20;;;26.70;99.90;;;;;;4919338;29;20476;-68
2021/07/24 08:54:57;;;;;;;11.00;9.90;;;26.70;99.90;;;;;;4919030;29;20451;-69
2021/07/24 08:57:32;;;;;;;11.60;10.50;;;26.80;99.90;;;;;;4918662;29;20911;-69
2021/07/24 09:00:05;;;;;;;12.83;10.03;;;26.90;99.90;;;;;;4918169;29;20563;-69
2021/07/24 09:02:38;;;;;;;11.20;10.10;;;27.00;99.90;;;;;;4919009;29;20563;-69
2021/07/24 09:05:07;;;;;;;12.63;10.60;;;27.00;99.90;;;;;;4918372;29;20460;-69
2021/07/24 09:07:36;;;;;;;11.90;10.30;;;27.10;99.90;;;;;;4918503;29;20803;-69
2021/07/24 09:10:04;;;;;;;10.70;9.60;;;27.10;99.90;;;;;;4917888;29;20911;-69
2021/07/24 09:12:30;;;;;;;12.13;10.33;;;27.20;99.90;;;;;;4917771;29;20489;-69
2021/07/24 09:14:57;;;;;;;12.67;10.17;;;27.30;99.90;;;;;;4918267;29;20461;-69
2021/07/24 09:17:25;;;;;;;10.57;9.47;;;27.30;99.90;;;;;;4918829;29;20465;-70
2021/07/24 09:19:53;;;;;;;11.43;10.00;;;27.40;99.90;;;;;;4917855;29;20541;-70
2021/07/24 09:22:30;;;;;;;12.47;10.30;;;27.40;99.90;;;;;;4919042;29;20462;-70
2021/07/24 09:25:12;;;;;;;11.83;10.63;;;27.50;99.90;;;;;;4919542;29;20516;-70
2021/07/24 09:27:41;;;;;;;12.60;10.90;;;27.50;99.90;;;;;;4921311;29;20453;-70
2021/07/24 09:30:27;;;;;;;11.03;9.93;;;27.50;99.90;;;;;;4921259;29;20950;-69
2021/07/24 09:33:02;;;;;;;12.03;10.83;;;27.50;99.90;;;;;;4921598;29;20824;-69
2021/07/24 09:35:35;;;;;;;12.30;10.77;;;27.60;99.90;;;;;;4921945;29;20449;-69
2021/07/24 09:38:06;;;;;;;11.47;10.27;;;27.70;99.90;;;;;;4921999;29;20491;-69
2021/07/24 09:40:35;;;;;;;10.43;9.47;;;27.70;99.90;;;;;;4921230;29;20442;-69
2021/07/24 09:43:04;;;;;;;12.20;10.90;;;27.80;99.90;;;;;;4921907;29;20461;-69
2021/07/24 09:45:32;;;;;;;11.00;9.90;;;27.80;99.90;;;;;;4921711;29;20470;-69
2021/07/24 09:48:15;;;;;;;11.07;10.07;;;27.90;99.90;;;;;;4921288;29;20482;-69
2021/07/24 09:50:48;;;;;;;12.83;10.07;;;28.00;99.90;;;;;;4922344;29;20445;-70
2021/07/24 09:53:35;;;;;;;11.37;9.40;;;28.10;99.90;;;;;;4921327;29;20449;-68
2021/07/24 09:56:04;;;;;;;11.30;10.20;;;28.20;99.90;;;;;;4921416;29;20520;-69
2021/07/24 09:58:31;;;;;;;11.50;10.03;;;28.20;99.90;;;;;;4921048;29;20516;-69
2021/07/24 10:01:08;;;;;;;10.63;9.53;;;28.20;99.90;;;;;;4921368;29;20462;-68
2021/07/24 10:03:38;;;;;;;10.83;9.80;;;28.30;99.90;;;;;;4921081;29;20468;-70
2021/07/24 10:06:12;;;;;;;11.03;9.93;;;28.30;99.90;;;;;;4921503;29;20846;-70
2021/07/24 10:08:40;;;;;;;12.90;11.10;;;28.40;99.90;;;;;;4921551;29;20449;-70
2021/07/24 10:11:07;;;;;;;14.27;10.30;;;28.50;99.90;;;;;;4921206;29;20468;-69
2021/07/24 10:13:36;;;;;;;11.90;9.53;;;28.40;99.90;;;;;;4921132;29;20863;-69
2021/07/24 10:16:03;;;;;;;10.93;9.93;;;28.50;99.90;;;;;;4920979;29;20465;-69
2021/07/24 10:18:29;;;;;;;11.83;10.67;;;28.60;99.90;;;;;;4920292;29;20488;-69
2021/07/24 10:20:58;;;;;;;11.13;10.03;;;28.70;99.90;;;;;;4920792;29;20469;-69
2021/07/24 10:23:30;;;;;;;10.63;9.53;;;28.80;99.90;;;;;;4920617;29;20476;-69
2021/07/24 10:26:09;;;;;;;11.03;9.87;;;28.90;99.90;;;;;;4920340;29;20493;-69
2021/07/24 10:28:41;;;;;;;11.80;10.60;;;28.90;99.90;;;;;;4920417;29;20460;-69
2021/07/24 10:31:12;;;;;;;11.63;10.43;;;29.00;99.90;;;;;;4920946;29;20446;-69
2021/07/24 10:33:41;;;;;;;11.37;10.23;;;29.00;99.90;;;;;;4920519;29;20446;-69
2021/07/24 10:36:13;;;;;;;10.43;9.03;;;29.10;99.90;;;;;;4920172;29;20461;-69
2021/07/24 10:38:59;;;;;;;12.00;9.70;;;29.10;99.90;;;;;;4920247;29;20485;-69
2021/07/24 10:41:45;;;;;;;10.80;9.70;;;29.20;99.90;;;;;;4920343;29;20891;-69
2021/07/24 10:44:15;;;;;;;10.67;9.57;;;29.30;99.90;;;;;;4920218;29;20458;-69
2021/07/24 10:47:10;;;;;;;13.20;10.27;;;29.40;99.90;;;;;;4920444;29;20466;-69
2021/07/24 10:50:05;;;;;;;10.93;9.93;;;29.50;99.90;;;;;;4920428;29;20541;-70
2021/07/24 10:53:14;;;;;;;9.67;8.67;;;29.70;99.90;;;;;;4907063;29;20795;-69
2021/07/24 10:55:47;;;;;;;11.83;9.87;;;29.90;99.90;;;;;;4920410;29;20460;-69
2021/07/24 10:58:14;;;;;;;11.67;10.50;;;29.90;99.90;;;;;;4920325;29;20517;-68
2021/07/24 11:00:51;;;;;;;11.60;10.40;;;29.80;99.90;;;;;;4920061;29;20461;-68
2021/07/24 11:03:39;;;;;;;10.90;9.83;;;29.80;99.90;;;;;;4919614;29;20918;-68
2021/07/24 11:06:32;;;;;;;10.70;9.60;;;29.90;99.90;;;;;;4919821;29;20476;-69
2021/07/24 11:09:17;;;;;;;10.30;9.30;;;30.00;99.90;;;;;;4905683;29;20462;-69
2021/07/24 11:11:46;;;;;;;10.40;9.40;;;30.10;99.90;;;;;;4919642;29;20496;-71
2021/07/24 11:14:55;;;;;;;11.50;9.40;;;30.20;99.90;;;;;;4919942;29;20780;-69
2021/07/24 11:17:23;;;;;;;15.50;9.60;;;30.30;99.90;;;;;;4915483;29;20782;-69
2021/07/24 11:20:30;;;;;;;10.00;8.97;;;30.40;99.90;;;;;;4920069;29;20481;-69
2021/07/24 11:23:10;;;;;;;10.10;8.70;;;30.50;99.90;;;;;;4922362;29;20905;-69
2021/07/24 11:25:40;;;;;;;11.20;9.47;;;30.80;99.90;;;;;;4919941;29;20458;-69
2021/07/24 11:28:09;;;;;;;9.83;8.80;;;31.10;99.90;;;;;;4919781;29;20465;-69
2021/07/24 11:30:36;;;;;;;9.93;8.47;;;31.60;99.90;;;;;;4920105;29;20465;-69
2021/07/24 11:33:05;;;;;;;10.33;8.67;;;32.30;99.90;;;;;;4919530;29;20472;-70
2021/07/24 11:35:39;;;;;;;9.63;8.73;;;33.10;99.90;;;;;;4919829;29;20851;-68
2021/07/24 11:38:20;;;;;;;8.43;7.63;;;34.00;99.00;;;;;;4921878;29;20445;-69
2021/07/24 11:41:01;;;;;;;9.90;8.90;;;34.90;97.00;;;;;;4920373;29;20449;-70
2021/07/24 11:43:30;;;;;;;8.77;7.97;;;35.60;94.30;;;;;;4921376;29;20457;-70
2021/07/24 11:46:03;;;;;;;9.53;8.57;;;36.30;91.40;;;;;;4920035;29;20485;-68
2021/07/24 11:48:30;;;;;;;8.20;7.50;;;36.80;90.20;;;;;;4919705;29;20492;-69
2021/07/24 11:51:02;;;;;;;9.23;8.40;;;37.40;86.70;;;;;;4920264;29;20471;-69
2021/07/24 11:53:30;;;;;;;9.90;9.00;;;37.80;82.20;;;;;;4920328;29;20473;-69
2021/07/24 11:55:57;;;;;;;10.30;8.73;;;37.70;78.70;;;;;;4919809;29;20465;-69
2021/07/24 11:58:25;;;;;;;9.63;8.73;;;37.70;75.40;;;;;;4919884;29;20470;-69
2021/07/24 12:00:55;;;;;;;9.10;8.10;;;38.00;75.40;;;;;;4919931;29;20847;-69
2021/07/24 12:03:25;;;;;;;9.37;8.37;;;38.00;73.30;;;;;;4919727;29;20533;-69
2021/07/24 12:05:53;;;;;;;9.47;8.60;;;37.70;71.90;;;;;;4919279;29;20475;-69
2021/07/24 12:08:23;;;;;;;9.70;8.90;;;37.40;71.40;;;;;;4919193;29;20461;-69
2021/07/24 12:10:52;;;;;;;10.03;9.13;;;37.10;70.00;;;;;;4919563;29;20528;-69
2021/07/24 12:13:21;;;;;;;9.50;8.00;;;36.80;71.50;;;;;;4918261;29;20528;-69
2021/07/24 12:16:04;;;;;;;9.30;8.40;;;36.80;71.60;;;;;;4918892;29;20489;-69
2021/07/24 12:18:37;;;;;;;9.07;8.27;;;36.90;71.30;;;;;;4919587;29;20446;-69
2021/07/24 12:21:14;;;;;;;10.77;8.80;;;36.90;69.00;;;;;;4918826;29;20540;-69
2021/07/24 12:23:52;;;;;;;11.70;8.50;;;37.10;68.60;;;;;;4918980;29;20450;-69
2021/07/24 12:26:21;;;;;;;8.30;7.60;;;37.50;69.20;;;;;;4919191;29;20460;-69
2021/07/24 12:28:49;;;;;;;9.00;8.20;;;38.10;68.10;;;;;;4918959;29;20512;-69
2021/07/24 12:31:23;;;;;;;8.90;7.93;;;38.60;64.80;;;;;;4919291;29;20471;-70
2021/07/24 12:33:53;;;;;;;9.53;8.50;;;39.00;62.90;;;;;;4918559;29;20450;-70
2021/07/24 12:36:23;;;;;;;8.60;7.90;;;39.00;59.90;;;;;;4919049;29;20469;-70
2021/07/24 12:38:51;;;;;;;9.23;8.40;;;39.20;58.90;;;;;;4918983;29;20540;-70
2021/07/24 12:41:17;;;;;;;8.20;7.50;;;39.10;58.40;;;;;;4918290;29;20997;-70
2021/07/24 12:44:07;;;;;;;9.43;8.27;;;39.20;58.00;;;;;;4918747;29;20461;-70
2021/07/24 12:46:36;;;;;;;10.33;8.03;;;39.10;56.40;;;;;;4918192;29;20442;-70
2021/07/24 12:49:04;;;;;;;12.03;8.07;;;39.10;58.40;;;;;;4918613;29;20461;-70